sensor_id;sensor_type;location;lat;lon;timestamp;pressure;altitude;pressure_sealevel;temperature;humidity
64616;BME280;51027;42.162;24.754;2022-11-28T00:01:06;100529.72;;;6.98;79.59
64616;BME280;51027;42.162;24.754;2022-11-28T00:03:32;100522.59;;;7.09;82.33
64616;BME280;51027;42.162;24.754;2022-11-28T00:06:05;100532.19;;;7.10;80.58
64616;BME280;51027;42.162;24.754;2022-11-28T00:08:32;100520.03;;;7.03;79.97
64616;BME280;51027;42.162;24.754;2022-11-28T00:10:58;100515.03;;;6.83;81.44
64616;BME280;51027;42.162;24.754;2022-11-28T00:13:26;100523.53;;;7.02;84.46
64616;BME280;51027;42.162;24.754;2022-11-28T00:15:58;100520.13;;;6.97;82.20
64616;BME280;51027;42.162;24.754;2022-11-28T00:18:24;100485.34;;;6.86;83.41
64616;BME280;51027;42.162;24.754;2022-11-28T00:20:50;100522.69;;;7.02;82.96
64616;BME280;51027;42.162;24.754;2022-11-28T00:23:16;100519.25;;;6.98;84.25
64616;BME280;51027;42.162;24.754;2022-11-28T00:25:42;100517.59;;;6.88;85.12
64616;BME280;51027;42.162;24.754;2022-11-28T00:28:07;100516.91;;;6.71;85.92
64616;BME280;51027;42.162;24.754;2022-11-28T00:30:36;100520.38;;;6.73;86.98
64616;BME280;51027;42.162;24.754;2022-11-28T00:33:03;100519.56;;;6.68;87.51
64616;BME280;51027;42.162;24.754;2022-11-28T00:35:28;100521.25;;;6.72;87.44
64616;BME280;51027;42.162;24.754;2022-11-28T00:37:54;100521.22;;;6.78;87.54
64616;BME280;51027;42.162;24.754;2022-11-28T00:40:23;100520.50;;;6.60;86.73
64616;BME280;51027;42.162;24.754;2022-11-28T00:42:48;100516.13;;;6.62;87.40
64616;BME280;51027;42.162;24.754;2022-11-28T00:45:14;100519.59;;;6.64;88.98
64616;BME280;51027;42.162;24.754;2022-11-28T00:47:39;100516.13;;;6.61;88.23
64616;BME280;51027;42.162;24.754;2022-11-28T00:50:05;100515.22;;;6.63;89.51
64616;BME280;51027;42.162;24.754;2022-11-28T00:52:32;100510.06;;;6.57;88.60
64616;BME280;51027;42.162;24.754;2022-11-28T00:54:57;100510.09;;;6.56;89.29
64616;BME280;51027;42.162;24.754;2022-11-28T00:57:23;100484.91;;;6.41;90.17
64616;BME280;51027;42.162;24.754;2022-11-28T00:59:49;100510.06;;;6.57;89.37
64616;BME280;51027;42.162;24.754;2022-11-28T01:02:14;100504.00;;;6.52;89.93
64616;BME280;51027;42.162;24.754;2022-11-28T01:04:40;100468.50;;;6.27;89.74
64616;BME280;51027;42.162;24.754;2022-11-28T01:07:05;100498.84;;;6.46;90.16
64616;BME280;51027;42.162;24.754;2022-11-28T01:09:31;100506.72;;;6.42;90.09
64616;BME280;51027;42.162;24.754;2022-11-28T01:11:56;100498.88;;;6.42;90.68
64616;BME280;51027;42.162;24.754;2022-11-28T01:14:24;100499.81;;;6.36;90.34
64616;BME280;51027;42.162;24.754;2022-11-28T01:16:49;100504.28;;;6.25;91.04
64616;BME280;51027;42.162;24.754;2022-11-28T01:19:18;100493.81;;;6.25;91.87
64616;BME280;51027;42.162;24.754;2022-11-28T01:21:44;100495.47;;;6.32;92.53
64616;BME280;51027;42.162;24.754;2022-11-28T01:24:10;100495.47;;;6.35;91.72
64616;BME280;51027;42.162;24.754;2022-11-28T01:26:37;100498.09;;;6.35;92.47
64616;BME280;51027;42.162;24.754;2022-11-28T01:29:03;100499.84;;;6.31;92.46
64616;BME280;51027;42.162;24.754;2022-11-28T01:31:29;100500.78;;;6.24;92.60
64616;BME280;51027;42.162;24.754;2022-11-28T01:33:55;100497.22;;;6.31;93.45
64616;BME280;51027;42.162;24.754;2022-11-28T01:36:21;100491.09;;;6.32;92.77
64616;BME280;51027;42.162;24.754;2022-11-28T01:38:50;100482.47;;;6.24;93.41
64616;BME280;51027;42.162;24.754;2022-11-28T01:41:20;100493.78;;;6.28;93.72
64616;BME280;51027;42.162;24.754;2022-11-28T01:44:03;100496.34;;;6.31;93.73
64616;BME280;51027;42.162;24.754;2022-11-28T01:46:30;100489.41;;;6.30;94.28
64616;BME280;51027;42.162;24.754;2022-11-28T01:49:00;100494.69;;;6.24;95.28
64616;BME280;51027;42.162;24.754;2022-11-28T01:51:27;100487.63;;;6.35;94.85
64616;BME280;51027;42.162;24.754;2022-11-28T01:53:54;100483.28;;;6.31;95.05
64616;BME280;51027;42.162;24.754;2022-11-28T01:56:24;100484.16;;;6.30;95.75
64616;BME280;51027;42.162;24.754;2022-11-28T01:58:55;100479.97;;;6.14;95.46
64616;BME280;51027;42.162;24.754;2022-11-28T02:01:24;100479.06;;;6.16;96.25
64616;BME280;51027;42.162;24.754;2022-11-28T02:03:51;100474.78;;;6.06;95.75
64616;BME280;51027;42.162;24.754;2022-11-28T02:06:19;100473.91;;;6.05;96.29
64616;BME280;51027;42.162;24.754;2022-11-28T02:08:53;100475.66;;;6.06;96.70
64616;BME280;51027;42.162;24.754;2022-11-28T02:17:33;100469.59;;;6.03;97.39
64616;BME280;51027;42.162;24.754;2022-11-28T02:22:23;100465.19;;;6.06;98.28
64616;BME280;51027;42.162;24.754;2022-11-28T02:28:11;100470.44;;;6.05;98.77
64616;BME280;51027;42.162;24.754;2022-11-28T02:33:47;100468.78;;;5.95;99.90
64616;BME280;51027;42.162;24.754;2022-11-28T02:36:19;100467.06;;;5.94;100.00
64616;BME280;51027;42.162;24.754;2022-11-28T02:39:02;100465.38;;;5.79;100.00
64616;BME280;51027;42.162;24.754;2022-11-28T02:41:52;100467.16;;;5.75;100.00
64616;BME280;51027;42.162;24.754;2022-11-28T02:52:43;100459.25;;;5.85;100.00
64616;BME280;51027;42.162;24.754;2022-11-28T02:55:10;100437.53;;;5.72;100.00
64616;BME280;51027;42.162;24.754;2022-11-28T02:57:42;100468.81;;;5.86;100.00
64616;BME280;51027;42.162;24.754;2022-11-28T03:00:40;100464.47;;;5.85;100.00
64616;BME280;51027;42.162;24.754;2022-11-28T03:08:34;100468.88;;;5.76;96.31
64616;BME280;51027;42.162;24.754;2022-11-28T03:11:19;100459.28;;;5.77;97.46
64616;BME280;51027;42.162;24.754;2022-11-28T03:16:49;100454.91;;;5.79;99.01
64616;BME280;51027;42.162;24.754;2022-11-28T03:19:26;100469.72;;;5.80;99.93
64616;BME280;51027;42.162;24.754;2022-11-28T03:27:23;100467.09;;;5.82;97.11
64616;BME280;51027;42.162;24.754;2022-11-28T03:29:56;100467.22;;;5.65;96.11
64616;BME280;51027;42.162;24.754;2022-11-28T03:32:28;100457.69;;;5.56;96.93
64616;BME280;51027;42.162;24.754;2022-11-28T03:35:18;100462.00;;;5.65;95.46
64616;BME280;51027;42.162;24.754;2022-11-28T03:37:53;100467.16;;;5.71;98.26
64616;BME280;51027;42.162;24.754;2022-11-28T03:40:27;100458.47;;;5.70;99.78
64616;BME280;51027;42.162;24.754;2022-11-28T03:43:00;100471.47;;;5.78;99.25
64616;BME280;51027;42.162;24.754;2022-11-28T03:45:35;100469.75;;;5.77;100.00
64616;BME280;51027;42.162;24.754;2022-11-28T03:48:10;100463.66;;;5.75;100.00
64616;BME280;51027;42.162;24.754;2022-11-28T03:50:51;100468.03;;;5.70;100.00
64616;BME280;51027;42.162;24.754;2022-11-28T03:53:25;100469.78;;;5.71;100.00
64616;BME280;51027;42.162;24.754;2022-11-28T03:55:58;100466.19;;;5.86;99.90
64616;BME280;51027;42.162;24.754;2022-11-28T03:58:35;100454.97;;;5.71;100.00
64616;BME280;51027;42.162;24.754;2022-11-28T04:06:24;100469.72;;;5.78;100.00
64616;BME280;51027;42.162;24.754;2022-11-28T04:08:59;100473.22;;;5.79;100.00
64616;BME280;51027;42.162;24.754;2022-11-28T04:11:32;100442.91;;;5.54;98.92
64616;BME280;51027;42.162;24.754;2022-11-28T04:16:50;100461.22;;;5.52;100.00
64616;BME280;51027;42.162;24.754;2022-11-28T04:19:26;100479.41;;;5.61;98.52
64616;BME280;51027;42.162;24.754;2022-11-28T04:24:30;100487.25;;;5.66;100.00
64616;BME280;51027;42.162;24.754;2022-11-28T04:27:07;100476.00;;;5.52;100.00
64616;BME280;51027;42.162;24.754;2022-11-28T04:29:37;100492.44;;;5.69;100.00
64616;BME280;51027;42.162;24.754;2022-11-28T04:32:06;100492.44;;;5.70;100.00
64616;BME280;51027;42.162;24.754;2022-11-28T04:34:35;100481.16;;;5.64;98.25
64616;BME280;51027;42.162;24.754;2022-11-28T04:37:01;100472.53;;;5.54;98.80
64616;BME280;51027;42.162;24.754;2022-11-28T04:39:31;100475.13;;;5.54;97.98
64616;BME280;51027;42.162;24.754;2022-11-28T04:42:02;100490.69;;;5.69;98.27
64616;BME280;51027;42.162;24.754;2022-11-28T04:44:45;100488.97;;;5.68;100.00
64616;BME280;51027;42.162;24.754;2022-11-28T04:47:11;100492.44;;;5.69;97.87
64616;BME280;51027;42.162;24.754;2022-11-28T04:49:37;100483.78;;;5.59;100.00
64616;BME280;51027;42.162;24.754;2022-11-28T04:52:15;100487.38;;;5.44;99.20
64616;BME280;51027;42.162;24.754;2022-11-28T04:55:01;100496.16;;;5.28;100.00
64616;BME280;51027;42.162;24.754;2022-11-28T05:00:33;100500.38;;;5.55;100.00
64616;BME280;51027;42.162;24.754;2022-11-28T05:02:58;100497.88;;;5.31;100.00
64616;BME280;51027;42.162;24.754;2022-11-28T05:05:25;100497.78;;;5.54;100.00
64616;BME280;51027;42.162;24.754;2022-11-28T05:07:51;100501.25;;;5.56;100.00
64616;BME280;51027;42.162;24.754;2022-11-28T05:10:17;100501.22;;;5.63;100.00
64616;BME280;51027;42.162;24.754;2022-11-28T05:12:43;100502.13;;;5.55;100.00
64616;BME280;51027;42.162;24.754;2022-11-28T05:15:09;100489.94;;;5.50;100.00
64616;BME280;51027;42.162;24.754;2022-11-28T05:17:35;100499.47;;;5.61;100.00
64616;BME280;51027;42.162;24.754;2022-11-28T05:20:00;100503.94;;;5.40;100.00
64616;BME280;51027;42.162;24.754;2022-11-28T05:22:26;100493.44;;;5.53;100.00
64616;BME280;51027;42.162;24.754;2022-11-28T05:24:51;100496.91;;;5.48;100.00
64616;BME280;51027;42.162;24.754;2022-11-28T05:27:16;100491.66;;;5.56;100.00
64616;BME280;51027;42.162;24.754;2022-11-28T05:29:42;100487.28;;;5.60;100.00
64616;BME280;51027;42.162;24.754;2022-11-28T05:32:12;100483.09;;;5.33;100.00
64616;BME280;51027;42.162;24.754;2022-11-28T05:34:37;100497.81;;;5.47;100.00
64616;BME280;51027;42.162;24.754;2022-11-28T05:37:04;100488.19;;;5.56;100.00
64616;BME280;51027;42.162;24.754;2022-11-28T05:39:30;100490.88;;;5.43;100.00
64616;BME280;51027;42.162;24.754;2022-11-28T05:41:56;100490.72;;;5.66;100.00
64616;BME280;51027;42.162;24.754;2022-11-28T05:44:22;100484.66;;;5.64;100.00
64616;BME280;51027;42.162;24.754;2022-11-28T05:46:47;100488.97;;;5.67;100.00
64616;BME280;51027;42.162;24.754;2022-11-28T05:49:12;100498.53;;;5.72;100.00
64616;BME280;51027;42.162;24.754;2022-11-28T05:51:38;100499.38;;;5.76;100.00
64616;BME280;51027;42.162;24.754;2022-11-28T05:54:04;100504.69;;;5.65;100.00
64616;BME280;51027;42.162;24.754;2022-11-28T05:56:30;100493.38;;;5.60;100.00
64616;BME280;51027;42.162;24.754;2022-11-28T05:58:55;100501.19;;;5.65;100.00
64616;BME280;51027;42.162;24.754;2022-11-28T06:01:26;100478.69;;;5.42;100.00
64616;BME280;51027;42.162;24.754;2022-11-28T06:03:52;100482.97;;;5.51;100.00
64616;BME280;51027;42.162;24.754;2022-11-28T06:06:24;100495.13;;;5.58;100.00
64616;BME280;51027;42.162;24.754;2022-11-28T06:08:50;100500.72;;;4.82;100.00
64616;BME280;51027;42.162;24.754;2022-11-28T06:11:17;100499.78;;;4.94;100.00
64616;BME280;51027;42.162;24.754;2022-11-28T06:13:44;100506.59;;;5.30;100.00
64616;BME280;51027;42.162;24.754;2022-11-28T06:16:12;100509.25;;;5.20;100.00
64616;BME280;51027;42.162;24.754;2022-11-28T06:18:38;100493.50;;;5.42;100.00
64616;BME280;51027;42.162;24.754;2022-11-28T06:21:05;100512.59;;;5.48;100.00
64616;BME280;51027;42.162;24.754;2022-11-28T06:23:32;100512.59;;;5.48;100.00
64616;BME280;51027;42.162;24.754;2022-11-28T06:26:02;100506.56;;;5.39;100.00
64616;BME280;51027;42.162;24.754;2022-11-28T06:28:27;100508.41;;;5.17;100.00
64616;BME280;51027;42.162;24.754;2022-11-28T06:30:53;100506.66;;;5.22;100.00
64616;BME280;51027;42.162;24.754;2022-11-28T06:33:18;100501.34;;;5.39;100.00
64616;BME280;51027;42.162;24.754;2022-11-28T06:35:43;100502.31;;;5.15;100.00
64616;BME280;51027;42.162;24.754;2022-11-28T06:38:09;100505.03;;;4.86;100.00
64616;BME280;51027;42.162;24.754;2022-11-28T06:40:38;100503.25;;;4.96;100.00
64616;BME280;51027;42.162;24.754;2022-11-28T06:43:03;100508.44;;;5.11;100.00
64616;BME280;51027;42.162;24.754;2022-11-28T06:45:29;100508.44;;;5.08;100.00
64616;BME280;51027;42.162;24.754;2022-11-28T06:47:54;100511.03;;;5.12;100.00
64616;BME280;51027;42.162;24.754;2022-11-28T06:50:19;100514.44;;;5.33;100.00
64616;BME280;51027;42.162;24.754;2022-11-28T06:52:45;100505.69;;;5.43;100.00
64616;BME280;51027;42.162;24.754;2022-11-28T06:55:10;100508.31;;;5.38;100.00
64616;BME280;51027;42.162;24.754;2022-11-28T06:57:36;100513.50;;;5.40;100.00
64616;BME280;51027;42.162;24.754;2022-11-28T07:00:03;100505.63;;;5.52;100.00
64616;BME280;51027;42.162;24.754;2022-11-28T07:02:29;100505.84;;;5.06;100.00
64616;BME280;51027;42.162;24.754;2022-11-28T07:04:54;100511.13;;;4.79;100.00
64616;BME280;51027;42.162;24.754;2022-11-28T07:07:20;100499.00;;;4.64;100.00
64616;BME280;51027;42.162;24.754;2022-11-28T07:09:45;100515.50;;;4.66;100.00
64616;BME280;51027;42.162;24.754;2022-11-28T07:12:11;100513.78;;;4.63;100.00
64616;BME280;51027;42.162;24.754;2022-11-28T07:14:36;100505.03;;;4.80;100.00
64616;BME280;51027;42.162;24.754;2022-11-28T07:17:02;100503.38;;;4.60;100.00
64616;BME280;51027;42.162;24.754;2022-11-28T07:19:27;100499.69;;;5.24;100.00
64616;BME280;51027;42.162;24.754;2022-11-28T07:21:53;100499.59;;;5.36;100.00
64616;BME280;51027;42.162;24.754;2022-11-28T07:24:18;100498.75;;;5.34;100.00
64616;BME280;51027;42.162;24.754;2022-11-28T07:26:45;100503.31;;;4.79;100.00
64616;BME280;51027;42.162;24.754;2022-11-28T07:29:15;100499.91;;;4.43;100.00
64616;BME280;51027;42.162;24.754;2022-11-28T07:31:40;100491.19;;;4.49;100.00
64616;BME280;51027;42.162;24.754;2022-11-28T07:34:07;100466.91;;;4.07;100.00
64616;BME280;51027;42.162;24.754;2022-11-28T07:36:33;100499.06;;;4.40;100.00
64616;BME280;51027;42.162;24.754;2022-11-28T07:39:00;100493.78;;;4.66;100.00
64616;BME280;51027;42.162;24.754;2022-11-28T07:41:26;100498.94;;;4.79;100.00
64616;BME280;51027;42.162;24.754;2022-11-28T07:43:54;100491.94;;;5.01;100.00
64616;BME280;51027;42.162;24.754;2022-11-28T07:46:19;100494.44;;;5.24;100.00
64616;BME280;51027;42.162;24.754;2022-11-28T07:48:46;100473.00;;;4.30;100.00
64616;BME280;51027;42.162;24.754;2022-11-28T07:51:17;100500.78;;;4.36;100.00
64616;BME280;51027;42.162;24.754;2022-11-28T07:53:43;100499.06;;;4.00;100.00
64616;BME280;51027;42.162;24.754;2022-11-28T07:56:12;100493.81;;;3.88;100.00
64616;BME280;51027;42.162;24.754;2022-11-28T07:58:40;100492.97;;;4.01;100.00
64616;BME280;51027;42.162;24.754;2022-11-28T08:01:17;100492.06;;;4.46;100.00
64616;BME280;51027;42.162;24.754;2022-11-28T08:03:43;100488.63;;;3.85;100.00
64616;BME280;51027;42.162;24.754;2022-11-28T08:06:10;100492.09;;;4.07;100.00
64616;BME280;51027;42.162;24.754;2022-11-28T08:08:36;100491.22;;;4.17;100.00
64616;BME280;51027;42.162;24.754;2022-11-28T08:11:03;100492.03;;;4.58;100.00
64616;BME280;51027;42.162;24.754;2022-11-28T08:13:29;100479.84;;;4.73;100.00
64616;BME280;51027;42.162;24.754;2022-11-28T08:15:54;100479.78;;;4.88;100.00
64616;BME280;51027;42.162;24.754;2022-11-28T08:18:20;100486.84;;;4.46;100.00
64616;BME280;51027;42.162;24.754;2022-11-28T08:20:45;100477.25;;;4.59;100.00
64616;BME280;51027;42.162;24.754;2022-11-28T08:23:11;100468.56;;;4.57;100.00
64616;BME280;51027;42.162;24.754;2022-11-28T08:25:37;100476.41;;;4.63;100.00
64616;BME280;51027;42.162;24.754;2022-11-28T08:28:02;100481.47;;;5.04;100.00
64616;BME280;51027;42.162;24.754;2022-11-28T08:30:28;100463.25;;;4.95;100.00
64616;BME280;51027;42.162;24.754;2022-11-28T08:32:53;100485.75;;;5.22;100.00
64616;BME280;51027;42.162;24.754;2022-11-28T08:35:18;100480.75;;;4.70;100.00
64616;BME280;51027;42.162;24.754;2022-11-28T08:37:44;100450.16;;;5.03;100.00
64616;BME280;51027;42.162;24.754;2022-11-28T08:40:10;100479.81;;;4.82;100.00
64616;BME280;51027;42.162;24.754;2022-11-28T08:42:35;100445.00;;;4.87;100.00
64616;BME280;51027;42.162;24.754;2022-11-28T08:45:01;100414.78;;;4.13;100.00
64616;BME280;51027;42.162;24.754;2022-11-28T08:47:26;100479.78;;;4.96;100.00
64616;BME280;51027;42.162;24.754;2022-11-28T08:49:52;100478.88;;;5.03;100.00
64616;BME280;51027;42.162;24.754;2022-11-28T08:52:17;100470.22;;;4.91;100.00
64616;BME280;51027;42.162;24.754;2022-11-28T08:54:42;100472.75;;;5.08;100.00
64616;BME280;51027;42.162;24.754;2022-11-28T08:57:08;100470.00;;;5.31;100.00
64616;BME280;51027;42.162;24.754;2022-11-28T08:59:34;100464.84;;;5.20;100.00
64616;BME280;51027;42.162;24.754;2022-11-28T09:01:59;100458.72;;;5.32;100.00
64616;BME280;51027;42.162;24.754;2022-11-28T09:04:26;100445.66;;;5.32;100.00
64616;BME280;51027;42.162;24.754;2022-11-28T09:06:51;100458.53;;;5.60;100.00
64616;BME280;51027;42.162;24.754;2022-11-28T09:09:17;100437.91;;;5.17;100.00
64616;BME280;51027;42.162;24.754;2022-11-28T09:11:43;100448.19;;;5.41;100.00
64616;BME280;51027;42.162;24.754;2022-11-28T09:14:08;100442.19;;;5.33;100.00
64616;BME280;51027;42.162;24.754;2022-11-28T09:16:34;100410.94;;;5.10;100.00
64616;BME280;51027;42.162;24.754;2022-11-28T09:18:59;100441.38;;;5.19;100.00
64616;BME280;51027;42.162;24.754;2022-11-28T09:21:25;100438.88;;;4.90;100.00
64616;BME280;51027;42.162;24.754;2022-11-28T09:23:53;100412.00;;;4.80;100.00
64616;BME280;51027;42.162;24.754;2022-11-28T09:26:21;100425.63;;;5.33;100.00
64616;BME280;51027;42.162;24.754;2022-11-28T09:28:47;100406.63;;;5.08;100.00
64616;BME280;51027;42.162;24.754;2022-11-28T09:31:14;100431.84;;;5.09;100.00
64616;BME280;51027;42.162;24.754;2022-11-28T09:33:40;100431.75;;;5.29;100.00
64616;BME280;51027;42.162;24.754;2022-11-28T09:36:09;100425.75;;;5.08;100.00
64616;BME280;51027;42.162;24.754;2022-11-28T09:38:36;100426.69;;;4.98;100.00
64616;BME280;51027;42.162;24.754;2022-11-28T09:41:02;100425.13;;;4.48;100.00
64616;BME280;51027;42.162;24.754;2022-11-28T09:43:41;100405.75;;;5.07;100.00
64616;BME280;51027;42.162;24.754;2022-11-28T09:46:12;100390.94;;;5.09;100.00
64616;BME280;51027;42.162;24.754;2022-11-28T09:48:45;100408.22;;;5.35;100.00
64616;BME280;51027;42.162;24.754;2022-11-28T09:54:14;100403.69;;;5.58;100.00
64616;BME280;51027;42.162;24.754;2022-11-28T09:56:42;100394.59;;;4.75;100.00
64616;BME280;51027;42.162;24.754;2022-11-28T09:59:17;100394.44;;;5.11;100.00
64616;BME280;51027;42.162;24.754;2022-11-28T10:04:45;100390.19;;;4.89;100.00
64616;BME280;51027;42.162;24.754;2022-11-28T10:12:42;100392.50;;;5.42;100.00
64616;BME280;51027;42.162;24.754;2022-11-28T10:20:36;100357.22;;;5.95;100.00
64616;BME280;51027;42.162;24.754;2022-11-28T10:23:12;100357.69;;;5.37;100.00
64616;BME280;51027;42.162;24.754;2022-11-28T10:25:44;100352.16;;;5.74;100.00
64616;BME280;51027;42.162;24.754;2022-11-28T10:28:22;100359.00;;;5.89;100.00
64616;BME280;51027;42.162;24.754;2022-11-28T10:30:58;100335.91;;;5.38;100.00
64616;BME280;51027;42.162;24.754;2022-11-28T10:33:32;100360.19;;;5.51;100.00
64616;BME280;51027;42.162;24.754;2022-11-28T10:36:01;100358.66;;;5.24;100.00
64616;BME280;51027;42.162;24.754;2022-11-28T10:38:29;100356.72;;;5.52;100.00
64616;BME280;51027;42.162;24.754;2022-11-28T10:57:02;100337.75;;;6.25;100.00
64616;BME280;51027;42.162;24.754;2022-11-28T11:05:34;100328.69;;;6.51;100.00
64616;BME280;51027;42.162;24.754;2022-11-28T11:08:03;100324.16;;;5.87;100.00
64616;BME280;51027;42.162;24.754;2022-11-28T11:10:32;100320.28;;;6.26;100.00
64616;BME280;51027;42.162;24.754;2022-11-28T11:13:26;100318.50;;;6.29;100.00
64616;BME280;51027;42.162;24.754;2022-11-28T11:16:09;100320.31;;;6.21;100.00
64616;BME280;51027;42.162;24.754;2022-11-28T11:18:49;100297.28;;;5.75;100.00
64616;BME280;51027;42.162;24.754;2022-11-28T11:21:19;100320.31;;;6.24;100.00
64616;BME280;51027;42.162;24.754;2022-11-28T11:23:46;100306.44;;;6.18;100.00
64616;BME280;51027;42.162;24.754;2022-11-28T11:26:27;100308.84;;;6.33;100.00
64616;BME280;51027;42.162;24.754;2022-11-28T11:28:54;100305.97;;;6.53;98.53
64616;BME280;51027;42.162;24.754;2022-11-28T11:31:48;100314.81;;;6.46;99.46
64616;BME280;51027;42.162;24.754;2022-11-28T11:34:14;100304.72;;;6.15;99.79
64616;BME280;51027;42.162;24.754;2022-11-28T11:36:41;100301.03;;;6.31;100.00
64616;BME280;51027;42.162;24.754;2022-11-28T11:41:36;100281.91;;;6.28;99.17
64616;BME280;51027;42.162;24.754;2022-11-28T11:46:54;100292.34;;;6.29;98.57
64616;BME280;51027;42.162;24.754;2022-11-28T11:51:57;100294.50;;;5.94;98.63
64616;BME280;51027;42.162;24.754;2022-11-28T11:54:23;100298.00;;;5.88;100.00
64616;BME280;51027;42.162;24.754;2022-11-28T11:56:49;100277.88;;;5.98;100.00
64616;BME280;51027;42.162;24.754;2022-11-28T11:59:28;100289.69;;;6.34;100.00
64616;BME280;51027;42.162;24.754;2022-11-28T12:02:04;100292.78;;;5.87;100.00
64616;BME280;51027;42.162;24.754;2022-11-28T12:04:33;100295.03;;;6.25;100.00
64616;BME280;51027;42.162;24.754;2022-11-28T12:07:04;100291.38;;;6.38;100.00
64616;BME280;51027;42.162;24.754;2022-11-28T12:09:42;100296.69;;;6.30;100.00
64616;BME280;51027;42.162;24.754;2022-11-28T12:12:21;100281.84;;;6.34;100.00
64616;BME280;51027;42.162;24.754;2022-11-28T12:14:48;100273.13;;;6.32;100.00
64616;BME280;51027;42.162;24.754;2022-11-28T12:17:36;100291.28;;;6.46;100.00
64616;BME280;51027;42.162;24.754;2022-11-28T12:20:09;100290.34;;;6.50;99.46
64616;BME280;51027;42.162;24.754;2022-11-28T12:25:38;100291.78;;;6.01;100.00
64616;BME280;51027;42.162;24.754;2022-11-28T12:51:04;100297.78;;;6.11;100.00
64616;BME280;51027;42.162;24.754;2022-11-28T12:59:34;100285.28;;;6.36;100.00
64616;BME280;51027;42.162;24.754;2022-11-28T13:02:28;100291.31;;;6.41;100.00
64616;BME280;51027;42.162;24.754;2022-11-28T13:10:50;100304.28;;;5.70;100.00
64616;BME280;51027;42.162;24.754;2022-11-28T13:13:28;100278.81;;;5.91;100.00
64616;BME280;51027;42.162;24.754;2022-11-28T13:21:53;100308.56;;;5.77;100.00
64616;BME280;51027;42.162;24.754;2022-11-28T13:35:27;100287.31;;;6.11;100.00
64616;BME280;51027;42.162;24.754;2022-11-28T13:45:53;100295.22;;;6.08;100.00
64616;BME280;51027;42.162;24.754;2022-11-28T13:53:36;100270.00;;;6.04;100.00
64616;BME280;51027;42.162;24.754;2022-11-28T13:58:32;100284.06;;;5.88;100.00
64616;BME280;51027;42.162;24.754;2022-11-28T14:01:22;100283.75;;;6.18;100.00
64616;BME280;51027;42.162;24.754;2022-11-28T14:06:21;100277.78;;;6.07;100.00
64616;BME280;51027;42.162;24.754;2022-11-28T14:09:06;100283.13;;;5.98;100.00
64616;BME280;51027;42.162;24.754;2022-11-28T14:23:09;100287.19;;;6.22;100.00
64616;BME280;51027;42.162;24.754;2022-11-28T14:25:42;100281.16;;;6.18;100.00
64616;BME280;51027;42.162;24.754;2022-11-28T14:28:20;100283.81;;;6.15;100.00
64616;BME280;51027;42.162;24.754;2022-11-28T14:30:47;100268.72;;;5.56;100.00
64616;BME280;51027;42.162;24.754;2022-11-28T14:33:23;100289.25;;;5.92;100.00
64616;BME280;51027;42.162;24.754;2022-11-28T14:38:45;100290.22;;;5.81;100.00
64616;BME280;51027;42.162;24.754;2022-11-28T14:41:11;100285.97;;;5.73;100.00
64616;BME280;51027;42.162;24.754;2022-11-28T14:43:48;100281.50;;;5.82;100.00
64616;BME280;51027;42.162;24.754;2022-11-28T14:48:41;100290.19;;;5.85;100.00
64616;BME280;51027;42.162;24.754;2022-11-28T14:56:46;100258.19;;;5.63;100.00
64616;BME280;51027;42.162;24.754;2022-11-28T14:59:12;100278.81;;;5.89;100.00
64616;BME280;51027;42.162;24.754;2022-11-28T15:10:49;100280.94;;;5.50;100.00
64616;BME280;51027;42.162;24.754;2022-11-28T15:15:57;100279.00;;;5.74;100.00
64616;BME280;51027;42.162;24.754;2022-11-28T15:18:24;100279.75;;;5.85;100.00
64616;BME280;51027;42.162;24.754;2022-11-28T15:20:54;100275.31;;;5.95;100.00
64616;BME280;51027;42.162;24.754;2022-11-28T15:23:31;100268.44;;;5.85;100.00
64616;BME280;51027;42.162;24.754;2022-11-28T15:25:58;100274.59;;;5.77;100.00
64616;BME280;51027;42.162;24.754;2022-11-28T15:28:34;100260.03;;;5.54;100.00
64616;BME280;51027;42.162;24.754;2022-11-28T15:31:15;100276.47;;;5.62;100.00
64616;BME280;51027;42.162;24.754;2022-11-28T15:33:43;100273.69;;;5.83;100.00
64616;BME280;51027;42.162;24.754;2022-11-28T15:36:29;100277.91;;;5.96;100.00
64616;BME280;51027;42.162;24.754;2022-11-28T15:38:55;100274.56;;;5.79;100.00
64616;BME280;51027;42.162;24.754;2022-11-28T15:41:34;100261.94;;;5.36;100.00
64616;BME280;51027;42.162;24.754;2022-11-28T15:44:01;100272.03;;;5.70;100.00
64616;BME280;51027;42.162;24.754;2022-11-28T15:46:32;100270.34;;;5.67;100.00
64616;BME280;51027;42.162;24.754;2022-11-28T15:48:58;100278.03;;;5.81;100.00
64616;BME280;51027;42.162;24.754;2022-11-28T15:53:55;100284.25;;;5.72;100.00
64616;BME280;51027;42.162;24.754;2022-11-28T15:57:02;100281.53;;;5.78;100.00
64616;BME280;51027;42.162;24.754;2022-11-28T15:59:27;100287.91;;;5.53;100.00
64616;BME280;51027;42.162;24.754;2022-11-28T16:01:56;100281.81;;;5.53;100.00
64616;BME280;51027;42.162;24.754;2022-11-28T16:04:23;100289.69;;;5.46;100.00
64616;BME280;51027;42.162;24.754;2022-11-28T16:06:50;100282.09;;;5.22;100.00
64616;BME280;51027;42.162;24.754;2022-11-28T16:11:50;100261.94;;;5.35;100.00
64616;BME280;51027;42.162;24.754;2022-11-28T16:14:21;100281.13;;;5.29;100.00
64616;BME280;51027;42.162;24.754;2022-11-28T16:16:48;100278.44;;;5.40;100.00
64616;BME280;51027;42.162;24.754;2022-11-28T16:19:25;100277.63;;;5.30;100.00
64616;BME280;51027;42.162;24.754;2022-11-28T16:21:58;100282.75;;;5.44;100.00
64616;BME280;51027;42.162;24.754;2022-11-28T16:24:46;100280.00;;;5.59;100.00